Time;durP1;ratioP1;P1;durP2;ratioP2;P2;SDS_P1;SDS_P2;PMS_P1;PMS_P2;Temp;Humidity;BMP_temperature;BMP_pressure;BME280_temperature;BME280_humidity;BME280_pressure;Samples;Min_cycle;Max_cycle;Signal;HPM_P1;HPM_P2
2021/03/15 00:00:43;;;;;;;8.37;2.20;;;;;;;4.77;100.00;100045.88;4973480;28;20225;-71
2021/03/15 00:03:09;;;;;;;12.90;2.40;;;;;;;4.91;100.00;100042.59;4972746;28;20644;-72
2021/03/15 00:05:39;;;;;;;10.87;2.20;;;;;;;4.92;100.00;100044.19;4972902;28;20239;-71
2021/03/15 00:08:05;;;;;;;8.67;3.23;;;;;;;5.02;100.00;100044.34;4972930;28;20695;-71
2021/03/15 00:10:31;;;;;;;10.30;2.20;;;;;;;4.98;100.00;100038.63;4966029;28;20227;-73
2021/03/15 00:12:58;;;;;;;9.07;2.00;;;;;;;5.02;100.00;100045.13;4972706;28;20660;-71
2021/03/15 00:15:24;;;;;;;7.03;2.30;;;;;;;5.06;100.00;100038.19;4973144;28;20225;-72
2021/03/15 00:17:52;;;;;;;11.77;2.60;;;;;;;5.08;100.00;100037.94;4973253;28;20206;-72
2021/03/15 00:20:18;;;;;;;9.70;2.27;;;;;;;4.95;100.00;100032.94;4972804;28;20256;-71
2021/03/15 00:22:45;;;;;;;11.90;2.53;;;;;;;4.97;100.00;100026.22;4972321;28;20248;-72
2021/03/15 00:25:11;;;;;;;9.20;2.30;;;;;;;4.96;100.00;100020.28;4963301;28;20533;-71
2021/03/15 00:27:39;;;;;;;10.70;2.43;;;;;;;4.97;100.00;100026.22;4965348;28;20204;-72
2021/03/15 00:30:07;;;;;;;9.67;2.47;;;;;;;4.88;100.00;100018.84;4974668;28;20185;-71
2021/03/15 00:32:35;;;;;;;12.20;2.30;;;;;;;4.87;100.00;100021.78;4979203;28;20334;-73
2021/03/15 00:35:03;;;;;;;9.70;2.53;;;;;;;4.89;100.00;100017.81;5012736;28;20200;-73
2021/03/15 00:37:31;;;;;;;10.77;3.03;;;;;;;4.97;100.00;100020.84;4961646;28;20233;-71
2021/03/15 00:39:58;;;;;;;12.53;3.00;;;;;;;4.89;100.00;100014.28;4972064;28;20198;-73
2021/03/15 00:42:27;;;;;;;9.37;2.50;;;;;;;4.96;100.00;100015.72;4963523;28;20744;-72
2021/03/15 00:44:52;;;;;;;11.77;2.70;;;;;;;4.86;100.00;100023.69;4973180;28;20193;-71
2021/03/15 00:47:18;;;;;;;14.43;3.07;;;;;;;5.05;100.00;100020.44;4956409;28;20226;-71
2021/03/15 00:49:44;;;;;;;14.73;3.10;;;;;;;4.84;100.00;100015.06;4957116;28;20731;-71
2021/03/15 00:52:10;;;;;;;12.10;3.03;;;;;;;4.88;100.00;100020.75;4939494;28;20720;-72
2021/03/15 00:54:35;;;;;;;10.63;2.97;;;;;;;4.83;100.00;100021.47;4957091;28;20182;-73
2021/03/15 00:57:12;;;;;;;7.83;2.70;;;;;;;4.71;100.00;100020.81;4958748;28;20232;-71
2021/03/15 00:59:39;;;;;;;9.70;2.70;;;;;;;4.63;100.00;100023.09;4972322;28;20754;-72
2021/03/15 01:02:08;;;;;;;8.57;2.63;;;;;;;4.68;100.00;100031.25;4955619;28;20752;-71
2021/03/15 01:04:34;;;;;;;13.67;2.90;;;;;;;4.66;100.00;100028.81;4957158;28;20178;-72
2021/03/15 01:07:13;;;;;;;8.30;2.83;;;;;;;4.70;100.00;100038.00;4942778;28;20290;-72
2021/03/15 01:09:40;;;;;;;11.23;2.73;;;;;;;4.83;100.00;100028.75;4942174;28;20193;-72
2021/03/15 01:12:18;;;;;;;10.60;3.43;;;;;;;4.74;100.00;100028.38;4940977;28;20890;-71
2021/03/15 01:14:48;;;;;;;13.07;4.57;;;;;;;4.84;100.00;100033.06;4940730;28;20193;-71
2021/03/15 01:17:18;;;;;;;15.63;5.07;;;;;;;4.79;100.00;100019.56;4960472;28;20233;-72
2021/03/15 01:19:48;;;;;;;17.87;5.10;;;;;;;4.78;100.00;100025.97;4960450;28;20589;-72
2021/03/15 01:22:14;;;;;;;12.43;3.63;;;;;;;4.78;100.00;100024.13;4942274;28;20279;-71
2021/03/15 01:24:39;;;;;;;12.27;3.40;;;;;;;4.85;100.00;100021.22;4944040;28;20189;-72
2021/03/15 01:27:05;;;;;;;13.30;4.03;;;;;;;4.94;100.00;100008.97;4991423;28;20230;-71
2021/03/15 01:29:31;;;;;;;20.03;5.57;;;;;;;4.82;100.00;100016.38;4944189;28;20280;-71
2021/03/15 01:31:56;;;;;;;14.47;4.47;;;;;;;4.83;100.00;100017.97;4974465;28;20245;-71
2021/03/15 01:34:26;;;;;;;14.80;5.30;;;;;;;4.76;100.00;100011.97;4941214;28;20181;-71
2021/03/15 01:37:00;;;;;;;13.23;3.20;;;;;;;4.92;100.00;100008.41;4959874;28;20603;-71
2021/03/15 01:39:25;;;;;;;15.13;4.97;;;;;;;4.87;100.00;100002.97;4975364;28;20292;-71
2021/03/15 01:41:53;;;;;;;12.63;3.90;;;;;;;4.86;100.00;100002.16;4969753;28;20225;-72
2021/03/15 01:44:21;;;;;;;13.97;3.83;;;;;;;4.84;100.00;100003.50;4958604;28;20182;-71
2021/03/15 01:46:46;;;;;;;8.30;3.57;;;;;;;4.71;100.00;99993.13;4975477;28;20276;-73
2021/03/15 01:49:14;;;;;;;8.70;3.50;;;;;;;4.66;100.00;99996.53;4975991;28;20197;-71
2021/03/15 01:51:39;;;;;;;20.40;5.63;;;;;;;4.60;100.00;99996.72;4974449;28;20276;-71
2021/03/15 01:54:05;;;;;;;12.97;4.40;;;;;;;4.57;100.00;99991.84;4942998;28;20190;-71
2021/03/15 01:56:35;;;;;;;14.73;5.57;;;;;;;4.60;100.00;99999.44;4958208;28;20601;-72
2021/03/15 01:59:00;;;;;;;13.10;5.10;;;;;;;4.63;100.00;100002.44;4975542;28;20741;-71
2021/03/15 02:01:30;;;;;;;9.77;4.17;;;;;;;4.74;100.00;99993.44;4943106;28;20217;-72
2021/03/15 02:03:58;;;;;;;8.20;3.13;;;;;;;4.89;100.00;99987.38;4975031;28;20239;-72
2021/03/15 02:06:24;;;;;;;13.03;4.50;;;;;;;4.80;100.00;99991.56;4974906;28;20224;-72
2021/03/15 02:08:49;;;;;;;8.20;4.00;;;;;;;4.79;100.00;99989.97;4943180;28;20616;-72
2021/03/15 02:11:24;;;;;;;8.67;3.53;;;;;;;4.67;100.00;99986.59;4974578;28;20718;-71
2021/03/15 02:13:56;;;;;;;10.47;4.43;;;;;;;4.76;100.00;99988.59;4959781;28;20878;-71
2021/03/15 02:16:27;;;;;;;10.53;4.00;;;;;;;4.75;100.00;99989.66;4958402;28;20233;-71
2021/03/15 02:18:54;;;;;;;8.87;3.27;;;;;;;4.67;100.00;99983.88;4975443;28;20316;-72
2021/03/15 02:21:47;;;;;;;8.30;3.90;;;;;;;5.01;100.00;99984.31;4990542;28;20308;-72
2021/03/15 02:24:31;;;;;;;9.60;3.23;;;;;;;5.00;100.00;99977.31;4977869;28;20182;-71
2021/03/15 02:27:34;;;;;;;6.40;3.23;;;;;;;4.93;100.00;99983.13;4990177;28;20225;-71
2021/03/15 02:30:05;;;;;;;7.73;3.37;;;;;;;4.95;100.00;99975.63;4974954;28;20193;-72
2021/03/15 02:32:52;;;;;;;7.73;3.90;;;;;;;5.05;100.00;99963.91;4989910;28;20653;-72
2021/03/15 02:35:21;;;;;;;8.53;4.03;;;;;;;5.14;100.00;99967.75;4957411;28;20197;-72
2021/03/15 02:37:52;;;;;;;9.07;3.67;;;;;;;5.17;100.00;99956.50;4943358;28;20340;-72
2021/03/15 02:40:31;;;;;;;8.40;3.40;;;;;;;5.08;100.00;99957.22;4985676;28;20557;-70
2021/03/15 02:42:57;;;;;;;9.50;3.63;;;;;;;5.19;100.00;99957.03;4978441;28;20187;-69
2021/03/15 02:45:22;;;;;;;7.73;3.73;;;;;;;5.14;100.00;99956.19;4922960;28;20754;-70
2021/03/15 02:47:48;;;;;;;8.33;3.47;;;;;;;5.08;100.00;99941.88;4907851;28;20214;-72
2021/03/15 02:50:16;;;;;;;7.10;3.50;;;;;;;5.04;100.00;99951.53;4923424;28;20195;-73
2021/03/15 02:52:46;;;;;;;7.07;3.93;;;;;;;4.96;100.00;99948.47;4922254;28;20264;-69
2021/03/15 02:55:27;;;;;;;9.47;3.83;;;;;;;5.10;100.00;99953.19;4923067;28;20253;-71
2021/03/15 02:57:52;;;;;;;8.57;4.07;;;;;;;5.16;100.00;99948.66;4940523;28;20703;-72
2021/03/15 03:00:19;;;;;;;7.93;4.17;;;;;;;5.17;100.00;99945.72;4922683;28;20244;-71
2021/03/15 03:02:47;;;;;;;8.87;3.60;;;;;;;5.17;100.00;99951.09;4971594;28;20606;-70
2021/03/15 03:05:14;;;;;;;10.10;4.00;;;;;;;5.21;100.00;99949.53;4926044;28;20264;-71
2021/03/15 03:07:41;;;;;;;7.03;3.60;;;;;;;5.32;100.00;99953.94;4939038;28;20249;-71
2021/03/15 03:10:11;;;;;;;8.03;3.23;;;;;;;5.19;100.00;99953.56;4960377;28;20193;-70
2021/03/15 03:12:38;;;;;;;6.30;3.50;;;;;;;5.18;100.00;99946.53;4956446;28;20715;-70
2021/03/15 03:15:10;;;;;;;5.13;3.47;;;;;;;5.25;100.00;99942.56;4923348;28;20195;-71
2021/03/15 03:17:39;;;;;;;6.50;3.30;;;;;;;5.29;100.00;99938.28;4938686;28;20273;-71
2021/03/15 03:20:12;;;;;;;8.47;3.53;;;;;;;5.29;100.00;99943.66;4923028;28;20202;-71
2021/03/15 03:22:41;;;;;;;6.50;3.40;;;;;;;5.28;100.00;99936.69;4957811;28;20217;-72
2021/03/15 03:25:15;;;;;;;7.27;3.50;;;;;;;5.26;100.00;99946.88;4972267;28;20189;-71
2021/03/15 03:27:45;;;;;;;7.80;3.57;;;;;;;5.16;100.00;99938.69;4923391;28;20225;-71
2021/03/15 03:30:11;;;;;;;5.20;3.60;;;;;;;5.27;100.00;99936.94;4938273;28;20190;-72
2021/03/15 03:32:39;;;;;;;7.53;3.93;;;;;;;5.26;100.00;99938.81;4922669;28;20238;-71
2021/03/15 03:35:10;;;;;;;5.07;3.30;;;;;;;5.15;100.00;99937.09;4938057;28;20253;-72
2021/03/15 03:37:36;;;;;;;7.33;3.43;;;;;;;5.27;100.00;99936.94;4955983;28;20210;-71
2021/03/15 03:40:04;;;;;;;8.00;3.87;;;;;;;5.34;100.00;99931.06;4973138;28;20204;-72
2021/03/15 03:42:33;;;;;;;6.57;3.60;;;;;;;5.24;100.00;99940.97;4938404;28;20649;-71
2021/03/15 03:44:58;;;;;;;5.20;3.43;;;;;;;5.43;100.00;99928.72;4941293;28;20201;-70
2021/03/15 03:47:24;;;;;;;6.07;4.20;;;;;;;5.38;100.00;99934.06;4957010;28;20233;-71
2021/03/15 03:49:49;;;;;;;5.23;3.70;;;;;;;5.38;100.00;99926.00;4941594;28;20694;-73
2021/03/15 03:52:15;;;;;;;6.67;3.83;;;;;;;5.24;100.00;99930.19;4972164;28;20233;-71
2021/03/15 03:54:45;;;;;;;3.87;3.50;;;;;;;5.17;100.00;99924.19;4941771;28;20194;-72
2021/03/15 03:57:24;;;;;;;6.90;3.87;;;;;;;5.22;100.00;99926.94;4924814;28;20352;-71
2021/03/15 03:59:51;;;;;;;10.47;4.50;;;;;;;5.23;100.00;99928.56;4942993;28;20189;-72
2021/03/15 04:02:18;;;;;;;7.77;4.17;;;;;;;5.21;100.00;99929.88;4955494;28;20776;-72
2021/03/15 04:04:48;;;;;;;9.83;3.83;;;;;;;5.39;100.00;99916.84;4925622;28;20186;-72
2021/03/15 04:07:21;;;;;;;4.90;4.20;;;;;;;5.35;100.00;99918.44;4949776;28;20266;-72
2021/03/15 04:09:47;;;;;;;6.90;4.10;;;;;;;5.31;100.00;99925.41;4939037;28;20198;-72
2021/03/15 04:12:16;;;;;;;6.53;4.20;;;;;;;5.19;100.00;99922.06;4940115;28;20714;-72
2021/03/15 04:14:49;;;;;;;6.77;4.03;;;;;;;5.32;100.00;99927.03;4947276;28;20268;-72
2021/03/15 04:17:19;;;;;;;4.43;3.80;;;;;;;5.40;100.00;99921.16;4945283;28;20225;-72
2021/03/15 04:19:49;;;;;;;6.43;4.50;;;;;;;5.26;100.00;99925.34;4953803;28;20653;-71
2021/03/15 04:22:14;;;;;;;4.43;3.80;;;;;;;5.28;100.00;99927.81;4920892;28;20222;-72
2021/03/15 04:24:40;;;;;;;5.00;4.03;;;;;;;5.28;100.00;99920.53;4946206;28;20182;-72
2021/03/15 04:27:06;;;;;;;6.40;3.83;;;;;;;5.20;100.00;99918.31;4961354;28;20222;-71
2021/03/15 04:29:39;;;;;;;5.80;3.67;;;;;;;5.38;100.00;99920.59;4938452;28;20604;-71
2021/03/15 04:32:08;;;;;;;5.67;3.67;;;;;;;5.19;100.00;99922.06;4949087;28;20275;-71
2021/03/15 04:34:34;;;;;;;5.10;3.90;;;;;;;5.18;100.00;99915.06;4954230;28;20241;-71
2021/03/15 04:37:09;;;;;;;6.13;4.00;;;;;;;5.27;100.00;99918.09;4954175;28;20268;-72
2021/03/15 04:39:36;;;;;;;5.57;3.73;;;;;;;5.27;100.00;99912.69;4975671;28;20193;-71
2021/03/15 04:42:04;;;;;;;4.33;3.93;;;;;;;5.31;100.00;99909.25;4978850;28;20712;-71
2021/03/15 04:44:32;;;;;;;5.90;3.83;;;;;;;5.26;100.00;99922.66;4981439;28;20193;-70
2021/03/15 04:46:57;;;;;;;5.37;3.87;;;;;;;5.33;100.00;99917.91;4993980;28;20353;-71
2021/03/15 04:49:25;;;;;;;5.57;4.03;;;;;;;5.38;100.00;99915.22;4979801;28;20184;-72
2021/03/15 04:51:51;;;;;;;6.47;4.20;;;;;;;5.38;100.00;99920.59;4955012;28;20257;-71
2021/03/15 04:54:17;;;;;;;4.90;3.97;;;;;;;5.34;100.00;99924.06;4969164;28;20234;-71
2021/03/15 04:56:42;;;;;;;4.70;4.27;;;;;;;5.52;100.00;99919.13;4991833;28;20751;-70
2021/03/15 04:59:08;;;;;;;5.43;4.40;;;;;;;5.30;100.00;99910.31;4974571;28;20212;-70
2021/03/15 05:01:35;;;;;;;6.23;5.10;;;;;;;5.34;100.00;99924.88;5012986;28;20220;-70
2021/03/15 05:04:00;;;;;;;5.70;4.67;;;;;;;5.42;100.00;99921.72;4986808;28;20188;-70
2021/03/15 05:06:28;;;;;;;5.17;4.03;;;;;;;5.24;100.00;99922.13;4960125;28;20611;-71
2021/03/15 05:08:54;;;;;;;7.90;4.33;;;;;;;5.09;100.00;99921.97;4976478;28;20206;-72
2021/03/15 05:11:23;;;;;;;4.53;3.97;;;;;;;5.13;100.00;99925.78;4983148;28;20228;-71
2021/03/15 05:13:53;;;;;;;4.13;3.70;;;;;;;5.19;100.00;99921.25;4992787;28;20250;-71
2021/03/15 05:16:19;;;;;;;4.50;3.90;;;;;;;5.12;100.00;99929.53;4998796;28;20228;-70
2021/03/15 05:18:44;;;;;;;4.67;3.80;;;;;;;5.10;100.00;99917.41;4983020;28;20207;-71
2021/03/15 05:21:10;;;;;;;5.33;3.50;;;;;;;5.03;100.00;99916.78;4982169;28;20710;-71
2021/03/15 05:23:35;;;;;;;5.07;3.50;;;;;;;4.92;100.00;99931.19;4981872;28;20191;-71
2021/03/15 05:26:01;;;;;;;3.60;3.10;;;;;;;5.08;100.00;99936.47;4998445;28;20254;-74
2021/03/15 05:28:26;;;;;;;5.00;3.60;;;;;;;5.08;100.00;99930.31;4982376;28;20216;-71
2021/03/15 05:30:56;;;;;;;4.57;3.00;;;;;;;4.91;100.00;99928.75;4982464;28;20224;-71
2021/03/15 05:33:22;;;;;;;5.07;3.20;;;;;;;5.24;100.00;99930.19;4981952;28;20184;-72
2021/03/15 05:35:49;;;;;;;4.87;3.70;;;;;;;5.25;100.00;99926.41;4998309;28;20231;-71
2021/03/15 05:38:15;;;;;;;4.20;3.80;;;;;;;5.20;100.00;99930.94;4988878;28;20259;-73
2021/03/15 05:40:44;;;;;;;101.17;66.53;;;;;;;5.19;100.00;99932.81;4970243;28;20220;-72
2021/03/15 05:43:21;;;;;;;4.23;3.00;;;;;;;5.16;100.00;99933.31;4989025;28;20846;-72
2021/03/15 05:46:10;;;;;;;3.50;3.20;;;;;;;5.25;100.00;99934.50;4995966;28;20259;-73
2021/03/15 05:48:45;;;;;;;5.73;3.17;;;;;;;5.36;100.00;99936.19;5029166;28;20219;-73
2021/03/15 05:51:39;;;;;;;4.53;3.17;;;;;;;5.22;100.00;99932.31;5013650;28;20228;-73
2021/03/15 05:54:27;;;;;;;3.37;2.90;;;;;;;5.22;100.00;99929.63;5003344;28;20192;-73
2021/03/15 05:57:17;;;;;;;3.23;2.67;;;;;;;5.15;100.00;99929.03;5016426;28;20236;-72
2021/03/15 05:59:54;;;;;;;3.67;2.67;;;;;;;5.34;100.00;99919.50;4965296;28;20205;-73
2021/03/15 06:02:42;;;;;;;3.17;2.63;;;;;;;5.19;100.00;99911.28;4986231;28;20228;-72
2021/03/15 06:05:18;;;;;;;3.97;2.57;;;;;;;5.15;100.00;99926.34;5005286;28;20197;-73
2021/03/15 06:07:54;;;;;;;4.10;3.00;;;;;;;5.12;100.00;99921.44;4976757;28;20219;-71
2021/03/15 06:10:35;;;;;;;5.33;2.80;;;;;;;4.97;100.00;99918.63;4964404;28;20205;-71
2021/03/15 06:13:08;;;;;;;3.93;3.03;;;;;;;5.06;100.00;99917.09;4965172;28;20204;-72
2021/03/15 06:15:45;;;;;;;8.17;5.90;;;;;;;5.04;100.00;99919.22;4972445;28;20236;-72
2021/03/15 06:18:15;;;;;;;5.30;3.20;;;;;;;4.83;100.00;99921.16;4967521;28;20363;-71
2021/03/15 06:20:42;;;;;;;5.37;2.90;;;;;;;5.03;100.00;99922.97;5005262;28;20580;-73
2021/03/15 06:23:08;;;;;;;4.23;3.20;;;;;;;5.17;100.00;99924.19;4969012;28;20277;-72
2021/03/15 06:25:34;;;;;;;4.93;3.00;;;;;;;5.06;100.00;99917.09;4971509;28;20308;-72
2021/03/15 06:28:06;;;;;;;6.77;3.33;;;;;;;5.26;100.00;99922.66;4966670;28;20337;-73
2021/03/15 06:30:35;;;;;;;5.50;3.17;;;;;;;5.19;100.00;99921.25;4945826;28;20232;-73
2021/03/15 06:33:01;;;;;;;3.17;2.77;;;;;;;5.07;100.00;99913.34;4946214;28;20210;-73
2021/03/15 06:35:31;;;;;;;4.10;3.10;;;;;;;5.16;100.00;99922.56;4964632;28;20930;-73
2021/03/15 06:37:57;;;;;;;3.20;2.83;;;;;;;5.22;100.00;99916.19;4943935;28;20217;-73
2021/03/15 06:40:22;;;;;;;3.93;3.20;;;;;;;4.99;100.00;99916.47;4956889;28;20601;-73
2021/03/15 06:42:51;;;;;;;3.60;3.13;;;;;;;5.03;100.00;99917.59;4962252;28;20664;-74
2021/03/15 06:45:19;;;;;;;4.40;3.27;;;;;;;4.97;100.00;99928.56;4970647;28;20194;-73
2021/03/15 06:47:45;;;;;;;4.60;3.40;;;;;;;4.96;100.00;99920.75;4955441;28;20233;-73
2021/03/15 06:50:14;;;;;;;5.73;3.10;;;;;;;4.95;100.00;99919.16;4954669;28;20182;-73
2021/03/15 06:52:56;;;;;;;5.27;4.17;;;;;;;5.04;100.00;99924.63;4938962;28;20260;-72
2021/03/15 06:55:26;;;;;;;5.07;3.20;;;;;;;4.98;100.00;99924.81;4971079;28;20244;-71
2021/03/15 06:57:54;;;;;;;4.80;3.50;;;;;;;5.05;100.00;99923.56;4958599;28;20216;-73
2021/03/15 07:00:25;;;;;;;5.40;3.67;;;;;;;5.17;100.00;99929.59;4942644;28;20198;-73
2021/03/15 07:03:03;;;;;;;5.33;3.77;;;;;;;5.17;100.00;99929.59;4942640;28;20201;-74
2021/03/15 07:05:31;;;;;;;4.80;3.80;;;;;;;5.08;100.00;99917.66;4958526;28;20642;-73
2021/03/15 07:08:00;;;;;;;5.03;3.67;;;;;;;5.07;100.00;99916.03;4943740;28;20209;-73
2021/03/15 07:10:27;;;;;;;6.67;3.97;;;;;;;5.39;100.00;99916.84;4958749;28;20225;-73
2021/03/15 07:13:19;;;;;;;7.70;4.13;;;;;;;5.35;100.00;99915.75;4961755;28;20289;-73
2021/03/15 07:15:45;;;;;;;4.70;3.50;;;;;;;5.30;100.00;99907.63;4938486;28;20229;-73
2021/03/15 07:18:16;;;;;;;8.00;3.50;;;;;;;5.48;100.00;99907.25;4939211;28;20737;-73
2021/03/15 07:20:46;;;;;;;7.53;4.00;;;;;;;5.42;100.00;99901.00;4971659;28;20781;-73
2021/03/15 07:23:12;;;;;;;7.53;3.80;;;;;;;5.47;100.00;99903.72;4953631;28;20676;-73
2021/03/15 07:25:40;;;;;;;8.10;3.67;;;;;;;5.53;100.00;99891.09;4937769;28;20233;-74
2021/03/15 07:28:07;;;;;;;5.67;2.93;;;;;;;5.35;100.00;99895.03;4939896;28;20249;-73
2021/03/15 07:30:40;;;;;;;5.47;3.23;;;;;;;5.56;100.00;99887.91;4956272;28;20230;-73
2021/03/15 07:33:12;;;;;;;8.10;3.57;;;;;;;5.75;100.00;99901.53;4939323;28;20225;-74
2021/03/15 07:35:41;;;;;;;4.33;3.13;;;;;;;5.92;100.00;99902.19;4939854;28;20226;-73
2021/03/15 07:38:06;;;;;;;5.63;2.77;;;;;;;6.12;100.00;99901.47;4958286;28;20308;-73
2021/03/15 07:40:46;;;;;;;6.17;3.50;;;;;;;5.93;100.00;99901.09;4982853;28;20316;-75
2021/03/15 07:43:23;;;;;;;4.53;3.07;;;;;;;5.75;100.00;99903.44;4948449;28;20182;-72
2021/03/15 07:45:51;;;;;;;6.67;3.03;;;;;;;5.90;100.00;99909.72;4942327;28;20313;-73
2021/03/15 07:48:31;;;;;;;7.20;3.17;;;;;;;5.86;100.00;99911.31;4940389;28;20264;-73
2021/03/15 07:51:04;;;;;;;4.60;2.60;;;;;;;5.86;100.00;99908.63;4946602;28;20236;-75
2021/03/15 07:53:49;;;;;;;4.17;2.80;;;;;;;6.08;100.00;99911.16;4992224;28;20186;-73
2021/03/15 07:56:21;;;;;;;6.43;3.00;;;;;;;6.16;100.00;99903.41;4973986;28;20236;-73
2021/03/15 07:58:47;;;;;;;6.30;2.67;;;;;;;5.95;100.00;99912.47;4942074;28;20292;-73
2021/03/15 08:01:14;;;;;;;6.97;3.20;;;;;;;6.23;100.00;99907.47;4941270;28;20213;-73
2021/03/15 08:03:40;;;;;;;7.40;3.00;;;;;;;6.06;100.00;99914.09;4957106;28;20654;-74
2021/03/15 08:06:07;;;;;;;6.93;3.10;;;;;;;6.01;100.00;99916.00;4957502;28;20246;-75
2021/03/15 08:08:39;;;;;;;3.20;2.60;;;;;;;5.88;100.00;99919.16;4942283;28;20206;-73
2021/03/15 08:11:07;;;;;;;5.33;2.50;;;;;;;6.16;100.00;99919.56;4978417;28;20216;-74
2021/03/15 08:13:43;;;;;;;7.90;2.50;;;;;;;6.03;100.00;99920.03;4995518;28;20725;-73
2021/03/15 08:16:08;;;;;;;5.00;2.90;;;;;;;6.04;100.00;99921.66;4979986;28;20227;-73
2021/03/15 08:18:34;;;;;;;5.93;2.77;;;;;;;6.04;100.00;99918.94;4996720;28;20306;-73
2021/03/15 08:21:04;;;;;;;6.10;2.80;;;;;;;6.05;100.00;99912.50;4995592;28;20268;-73
2021/03/15 08:23:37;;;;;;;5.33;2.97;;;;;;;6.10;100.00;99911.69;4980477;28;20188;-73
2021/03/15 08:26:04;;;;;;;7.73;2.90;;;;;;;5.90;100.00;99920.50;4984315;28;20252;-74
2021/03/15 08:28:34;;;;;;;6.93;2.90;;;;;;;5.99;100.00;99918.09;4996863;28;20204;-73
2021/03/15 08:31:22;;;;;;;6.10;3.10;;;;;;;5.92;100.00;99910.28;4980527;28;20244;-72
2021/03/15 08:33:48;;;;;;;4.77;3.10;;;;;;;6.08;100.00;99912.00;4979963;28;20180;-73
2021/03/15 08:36:16;;;;;;;8.20;2.83;;;;;;;6.10;100.00;99915.25;4980014;28;20301;-74
2021/03/15 08:38:44;;;;;;;7.73;3.33;;;;;;;6.07;100.00;99902.28;4980969;28;20211;-74
2021/03/15 08:41:20;;;;;;;7.40;3.03;;;;;;;6.38;100.00;99906.75;4961833;28;20214;-75
2021/03/15 08:43:50;;;;;;;7.93;3.30;;;;;;;6.49;100.00;99911.91;4964462;28;20643;-75
2021/03/15 08:46:38;;;;;;;6.83;3.00;;;;;;;6.61;100.00;99904.38;4942281;28;20784;-73
2021/03/15 08:49:10;;;;;;;8.47;3.03;;;;;;;6.49;100.00;99900.31;4941558;28;20641;-75
2021/03/15 08:51:39;;;;;;;7.80;4.10;;;;;;;6.45;100.00;99894.63;4927121;28;20261;-74
2021/03/15 08:54:05;;;;;;;7.03;3.10;;;;;;;6.31;100.00;99898.06;4941266;28;20571;-74
2021/03/15 08:56:33;;;;;;;8.73;3.33;;;;;;;6.18;100.00;99901.25;4925458;28;20738;-74
2021/03/15 08:59:00;;;;;;;9.53;2.87;;;;;;;5.95;100.00;99896.28;4958227;28;20606;-74
2021/03/15 09:01:54;;;;;;;8.80;3.90;;;;;;;6.19;100.00;99900.16;4938334;28;20610;-74
2021/03/15 09:04:41;;;;;;;9.00;3.80;;;;;;;6.03;100.00;99898.47;4957976;28;20671;-73
2021/03/15 09:07:27;;;;;;;4.20;2.57;;;;;;;5.94;100.00;99904.63;4957236;28;20766;-74
2021/03/15 09:09:52;;;;;;;6.80;3.10;;;;;;;6.05;100.00;99898.22;4958712;28;20644;-73
2021/03/15 09:12:18;;;;;;;7.87;3.80;;;;;;;6.02;100.00;99904.94;4960553;28;20229;-74
2021/03/15 09:14:56;;;;;;;9.10;3.50;;;;;;;5.95;100.00;99901.69;4957392;28;20691;-74
2021/03/15 09:17:22;;;;;;;11.83;4.13;;;;;;;6.10;100.00;99899.06;4941372;28;20245;-74
2021/03/15 09:19:48;;;;;;;6.90;3.27;;;;;;;6.10;100.00;99899.06;4957324;28;20301;-74
2021/03/15 09:22:26;;;;;;;5.63;3.23;;;;;;;6.17;100.00;99910.41;4955657;28;20309;-74
2021/03/15 09:24:56;;;;;;;8.43;3.60;;;;;;;6.25;100.00;99909.91;4941341;28;20221;-73
2021/03/15 09:27:27;;;;;;;8.77;3.77;;;;;;;6.45;100.00;99908.13;4973012;28;20230;-73
2021/03/15 09:30:06;;;;;;;6.73;3.57;;;;;;;6.44;100.00;99905.69;4957196;28;20221;-73
2021/03/15 09:32:35;;;;;;;6.37;3.27;;;;;;;6.72;100.00;99900.63;4959080;28;20233;-73
2021/03/15 09:35:11;;;;;;;7.77;3.60;;;;;;;7.07;100.00;99898.81;4977432;28;20191;-73
2021/03/15 09:37:45;;;;;;;3.50;2.10;;;;;;;6.77;100.00;99917.66;4975067;28;20221;-73
2021/03/15 09:40:15;;;;;;;5.60;2.70;;;;;;;6.83;100.00;99918.47;4962969;28;20279;-73
2021/03/15 09:42:41;;;;;;;5.03;2.30;;;;;;;6.74;100.00;99917.38;4990671;28;20183;-72
2021/03/15 09:45:08;;;;;;;4.50;2.67;;;;;;;6.90;100.00;99900.94;4941601;28;20182;-72
2021/03/15 09:47:34;;;;;;;6.00;2.60;;;;;;;7.20;100.00;99901.00;4941951;28;20249;-73
2021/03/15 09:50:02;;;;;;;6.73;2.70;;;;;;;7.07;100.00;99910.44;4910367;28;20637;-73
2021/03/15 09:52:44;;;;;;;6.27;3.00;;;;;;;7.49;100.00;99902.91;4962983;28;20228;-74
2021/03/15 09:55:15;;;;;;;3.80;2.53;;;;;;;7.49;100.00;99894.78;4945548;28;20189;-74
2021/03/15 09:57:41;;;;;;;4.20;2.27;;;;;;;7.78;100.00;99905.59;4976650;28;20259;-73
2021/03/15 10:00:35;;;;;;;4.40;2.40;;;;;;;7.81;100.00;99904.22;4963400;28;20193;-73
2021/03/15 10:03:21;;;;;;;7.27;2.70;;;;;;;8.34;100.00;99905.22;4946015;28;20571;-73
2021/03/15 10:06:20;;;;;;;6.43;2.30;;;;;;;8.51;100.00;99894.84;4905517;28;20228;-74
2021/03/15 10:09:04;;;;;;;4.63;2.00;;;;;;;8.14;100.00;99905.25;4951277;28;20221;-72
2021/03/15 10:11:48;;;;;;;6.50;2.13;;;;;;;8.19;100.00;99891.75;4981508;28;20220;-73
2021/03/15 10:14:29;;;;;;;7.17;2.10;;;;;;;8.12;100.00;99907.44;4997582;28;20196;-73
2021/03/15 10:17:21;;;;;;;4.97;2.03;;;;;;;8.13;100.00;99903.66;4982955;28;20247;-73
2021/03/15 10:20:19;;;;;;;5.07;2.20;;;;;;;7.68;100.00;99904.78;4996825;28;20671;-74
2021/03/15 10:22:47;;;;;;;7.07;1.80;;;;;;;7.68;100.00;99905.59;4992203;28;20639;-73
2021/03/15 10:25:16;;;;;;;2.87;1.70;;;;;;;7.58;100.00;99901.28;5010332;28;20280;-73
2021/03/15 10:27:57;;;;;;;4.63;1.70;;;;;;;7.72;100.00;99911.28;4994640;28;20201;-74
2021/03/15 10:30:29;;;;;;;4.27;1.47;;;;;;;7.96;100.00;99906.91;4978363;28;20231;-73
2021/03/15 10:32:56;;;;;;;4.17;1.40;;;;;;;8.11;100.00;99899.59;5009560;28;20221;-74
2021/03/15 10:35:23;;;;;;;7.57;1.50;;;;;;;7.82;100.00;99903.13;4993587;28;20231;-74
2021/03/15 10:38:05;;;;;;;5.27;1.23;;;;;;;7.67;100.00;99889.66;5010667;28;20212;-74
2021/03/15 10:40:44;;;;;;;5.53;1.30;;;;;;;8.19;100.00;99902.56;4958709;28;20225;-74
2021/03/15 10:43:20;;;;;;;4.53;1.37;;;;;;;8.87;100.00;99889.78;4967947;28;20174;-74
2021/03/15 10:45:47;;;;;;;4.83;1.30;;;;;;;8.89;100.00;99884.91;4958388;28;20267;-74
2021/03/15 10:48:14;;;;;;;7.67;1.40;;;;;;;8.73;100.00;99887.16;4942705;28;20233;-74
2021/03/15 10:50:55;;;;;;;5.27;1.70;;;;;;;8.74;100.00;99880.69;4944647;28;20227;-74
2021/03/15 10:53:52;;;;;;;6.00;1.40;;;;;;;8.60;100.00;99887.78;4973895;28;20721;-74
2021/03/15 10:56:34;;;;;;;6.07;1.30;;;;;;;8.33;100.00;99891.94;4990276;28;20232;-74
2021/03/15 10:59:05;;;;;;;6.80;1.60;;;;;;;8.07;100.00;99915.53;4959186;28;20205;-74
2021/03/15 11:01:37;;;;;;;5.90;1.40;;;;;;;7.62;100.00;99908.59;4959083;28;20233;-75
2021/03/15 11:04:31;;;;;;;4.10;1.10;;;;;;;7.33;100.00;99896.69;4994082;28;20556;-74
2021/03/15 11:07:21;;;;;;;3.53;1.13;;;;;;;7.15;100.00;99920.72;4963020;28;20225;-75
2021/03/15 11:10:01;;;;;;;4.70;1.27;;;;;;;6.91;100.00;99932.28;4964634;28;20196;-74
2021/03/15 11:12:33;;;;;;;3.43;0.70;;;;;;;6.38;100.00;99934.50;4970001;28;20291;-75
2021/03/15 11:15:17;;;;;;;2.60;0.80;;;;;;;6.25;100.00;99923.41;4948521;28;20305;-75
2021/03/15 11:18:06;;;;;;;4.37;0.80;;;;;;;6.41;100.00;99922.38;4979829;28;20241;-74
2021/03/15 11:20:39;;;;;;;3.43;0.80;;;;;;;6.44;100.00;99922.66;4978432;28;20274;-75
2021/03/15 11:23:10;;;;;;;2.83;1.07;;;;;;;6.70;100.00;99911.72;4978678;28;20215;-74
2021/03/15 11:25:42;;;;;;;6.73;1.17;;;;;;;7.04;100.00;99902.88;4961682;28;20225;-75
2021/03/15 11:28:12;;;;;;;5.27;1.07;;;;;;;7.10;100.00;99907.19;4963223;28;20279;-73
2021/03/15 11:30:41;;;;;;;5.73;1.60;;;;;;;7.29;100.00;99900.22;4961587;28;20812;-73
2021/03/15 11:33:16;;;;;;;6.17;1.17;;;;;;;7.65;100.00;99889.09;4993214;28;20770;-74
2021/03/15 11:36:15;;;;;;;7.33;1.40;;;;;;;7.90;100.00;99898.00;4981149;28;20229;-75
2021/03/15 11:39:03;;;;;;;6.87;1.50;;;;;;;7.85;100.00;99880.97;4963014;28;20230;-74
2021/03/15 11:41:42;;;;;;;8.10;1.50;;;;;;;8.27;100.00;99899.28;4960894;28;20221;-74
2021/03/15 11:44:09;;;;;;;6.50;1.90;;;;;;;8.28;100.00;99902.81;4988855;28;20196;-75
2021/03/15 11:46:38;;;;;;;5.47;1.20;;;;;;;7.95;100.00;99910.69;4993311;28;20221;-75
2021/03/15 11:49:05;;;;;;;8.13;1.60;;;;;;;7.57;100.00;99905.06;4978667;28;20201;-74
2021/03/15 11:51:56;;;;;;;4.30;1.13;;;;;;;7.21;100.00;99924.22;4992858;28;20228;-74